Time;durP1;ratioP1;P1;durP2;ratioP2;P2;SDS_P1;SDS_P2;PMS_P1;PMS_P2;Temp;Humidity;BMP_temperature;BMP_pressure;BME280_temperature;BME280_humidity;BME280_pressure;Samples;Min_cycle;Max_cycle;Signal;HPM_P1;HPM_P2
2022/11/29 00:01:34;;;;;;;62.87;57.57;;;8.20;99.90;;;;;;5051653;28;20443;-71
2022/11/29 00:04:02;;;;;;;60.07;54.83;;;8.20;99.90;;;;;;5051631;28;20444;-73
2022/11/29 00:06:30;;;;;;;64.40;58.50;;;8.30;99.90;;;;;;5051840;28;20487;-73
2022/11/29 00:08:58;;;;;;;60.97;55.67;;;8.30;99.90;;;;;;5051901;28;20502;-73
2022/11/29 00:14:19;;;;;;;59.90;55.00;;;8.20;99.90;;;;;;5041025;28;20787;-73
2022/11/29 00:16:51;;;;;;;62.27;56.27;;;8.30;99.90;;;;;;5051770;28;20444;-74
2022/11/29 00:19:18;;;;;;;59.90;54.70;;;8.30;99.90;;;;;;5051691;28;20490;-73
2022/11/29 00:21:45;;;;;;;59.23;54.23;;;8.30;99.90;;;;;;5051553;28;20459;-73
2022/11/29 00:24:12;;;;;;;56.80;52.10;;;8.20;99.90;;;;;;5051158;28;20444;-73
2022/11/29 04:16:09;;;;;;;58.10;53.30;;;8.50;99.90;;;;;;5084330;23;20680;-70
2022/11/29 04:19:03;;;;;;;58.27;53.57;;;8.40;99.90;;;;;;4992015;28;20752;-70
2022/11/29 04:22:07;;;;;;;59.17;54.23;;;8.40;99.90;;;;;;4991869;28;20874;-71
2022/11/29 04:24:55;;;;;;;57.60;52.90;;;8.40;99.90;;;;;;4991832;28;20449;-70
2022/11/29 04:27:36;;;;;;;56.13;51.53;;;8.30;99.90;;;;;;4991807;28;20498;-70
2022/11/29 04:30:19;;;;;;;58.53;53.53;;;8.30;99.90;;;;;;4992206;28;20447;-71
2022/11/29 04:33:14;;;;;;;61.00;55.70;;;8.30;99.90;;;;;;4990595;28;20481;-70
2022/11/29 04:36:20;;;;;;;58.13;53.37;;;8.30;99.90;;;;;;4992158;28;20442;-70
2022/11/29 04:39:02;;;;;;;58.17;53.23;;;8.40;99.90;;;;;;4980769;28;20657;-70
2022/11/29 04:42:07;;;;;;;57.67;52.70;;;8.40;99.90;;;;;;4992075;28;20450;-71
2022/11/29 04:44:58;;;;;;;56.20;51.70;;;8.40;99.90;;;;;;4959110;28;20442;-71
2022/11/29 04:47:44;;;;;;;59.57;54.83;;;8.50;99.90;;;;;;4991906;28;20487;-71
2022/11/29 04:50:26;;;;;;;58.77;53.87;;;8.50;99.90;;;;;;4991832;28;20455;-70
2022/11/29 04:53:28;;;;;;;59.87;55.00;;;8.50;99.90;;;;;;4991920;28;20447;-71
2022/11/29 04:56:04;;;;;;;59.43;54.80;;;8.50;99.90;;;;;;4994238;28;20443;-71
2022/11/29 04:58:37;;;;;;;59.30;54.50;;;8.40;99.90;;;;;;5011288;28;20449;-71
2022/11/29 05:01:15;;;;;;;57.63;52.73;;;8.40;99.90;;;;;;5011133;28;20442;-70
2022/11/29 05:03:46;;;;;;;60.00;54.70;;;8.50;99.90;;;;;;5011117;28;20911;-70
2022/11/29 05:06:22;;;;;;;56.20;51.90;;;8.50;99.90;;;;;;5010857;28;20453;-70
2022/11/29 05:08:59;;;;;;;56.60;52.40;;;8.50;99.90;;;;;;5010885;28;20481;-71
2022/11/29 05:11:38;;;;;;;56.73;52.33;;;8.50;99.90;;;;;;5010812;28;20452;-71
2022/11/29 05:14:14;;;;;;;56.40;51.77;;;8.50;99.90;;;;;;5010467;28;20504;-70
2022/11/29 05:16:47;;;;;;;57.27;52.57;;;8.50;99.90;;;;;;5010729;28;20450;-70
2022/11/29 05:19:43;;;;;;;54.93;50.63;;;8.40;99.90;;;;;;5010896;28;20723;-71
2022/11/29 05:22:24;;;;;;;57.83;52.90;;;8.50;99.90;;;;;;5010890;28;20453;-70
2022/11/29 05:24:59;;;;;;;59.37;54.00;;;8.60;99.90;;;;;;5010982;28;20939;-71
2022/11/29 05:27:40;;;;;;;62.20;56.53;;;8.50;99.90;;;;;;5010425;28;20508;-71
2022/11/29 05:30:12;;;;;;;58.30;54.00;;;8.60;99.90;;;;;;5010654;28;20457;-71
2022/11/29 05:32:50;;;;;;;56.80;52.23;;;8.70;99.90;;;;;;5010572;28;20937;-70
2022/11/29 05:35:49;;;;;;;58.43;53.17;;;8.70;99.90;;;;;;5010357;28;20453;-71
2022/11/29 05:38:32;;;;;;;58.33;53.70;;;8.70;99.90;;;;;;5010026;28;20814;-71
2022/11/29 05:41:12;;;;;;;58.90;54.50;;;8.80;99.90;;;;;;5010282;28;20449;-71
2022/11/29 05:43:49;;;;;;;56.37;51.93;;;8.80;99.90;;;;;;5010475;28;20445;-71
2022/11/29 05:46:22;;;;;;;57.10;52.30;;;9.00;99.90;;;;;;5010343;28;20958;-71
2022/11/29 05:48:58;;;;;;;60.53;55.60;;;9.00;99.90;;;;;;5009531;28;20492;-71
2022/11/29 05:51:37;;;;;;;56.20;51.97;;;9.00;99.90;;;;;;5010438;28;20445;-71
2022/11/29 05:54:14;;;;;;;56.13;51.30;;;9.10;99.90;;;;;;5010094;28;20450;-70
2022/11/29 05:56:48;;;;;;;55.60;51.43;;;9.20;99.90;;;;;;5010140;28;20457;-70
2022/11/29 05:59:19;;;;;;;54.17;50.13;;;9.20;99.90;;;;;;5010065;28;20446;-70
2022/11/29 06:01:54;;;;;;;55.50;51.30;;;9.30;99.90;;;;;;5009923;28;20782;-70
2022/11/29 06:04:28;;;;;;;57.17;52.80;;;9.30;99.90;;;;;;5010056;28;20442;-71
2022/11/29 06:07:02;;;;;;;56.13;52.23;;;9.30;99.90;;;;;;5009904;28;20469;-70
2022/11/29 06:09:38;;;;;;;56.53;52.43;;;9.20;99.90;;;;;;5010034;28;20456;-71
2022/11/29 06:12:13;;;;;;;55.00;50.97;;;9.40;99.90;;;;;;5009893;28;20584;-71
2022/11/29 06:15:24;;;;;;;54.40;50.50;;;9.30;99.90;;;;;;5009715;28;20477;-70
2022/11/29 06:18:16;;;;;;;53.63;49.90;;;9.40;99.90;;;;;;5010106;28;20469;-71
2022/11/29 06:20:54;;;;;;;50.10;46.90;;;9.40;99.90;;;;;;5004657;28;20458;-71
2022/11/29 06:23:49;;;;;;;53.57;49.87;;;9.50;99.90;;;;;;5009696;28;20460;-71
2022/11/29 06:26:32;;;;;;;53.50;49.80;;;9.40;99.90;;;;;;5009606;28;20460;-71
2022/11/29 06:29:17;;;;;;;51.03;47.33;;;9.50;99.90;;;;;;5009588;28;20540;-72
2022/11/29 06:31:50;;;;;;;49.30;45.70;;;9.50;99.90;;;;;;5009864;28;20544;-71
2022/11/29 06:34:29;;;;;;;46.57;43.67;;;9.40;99.90;;;;;;5009518;28;20446;-71
2022/11/29 06:37:00;;;;;;;48.10;45.20;;;9.40;99.90;;;;;;5009835;28;20441;-71
2022/11/29 06:39:27;;;;;;;44.37;41.57;;;9.30;99.90;;;;;;5009708;28;20446;-71
2022/11/29 06:41:56;;;;;;;46.20;43.30;;;9.40;99.90;;;;;;5009701;28;20562;-72
2022/11/29 06:44:23;;;;;;;44.67;41.93;;;9.30;99.90;;;;;;5009809;28;20450;-70
2022/11/29 06:46:58;;;;;;;46.20;43.40;;;9.30;99.90;;;;;;5009762;28;20453;-71
2022/11/29 06:49:28;;;;;;;42.83;39.80;;;9.40;99.90;;;;;;5009564;28;20481;-72
2022/11/29 06:52:08;;;;;;;44.40;41.87;;;9.40;99.90;;;;;;5009505;28;21023;-70
2022/11/29 06:54:53;;;;;;;42.73;40.10;;;9.40;99.90;;;;;;5009588;28;20484;-74
2022/11/29 06:57:29;;;;;;;42.97;40.57;;;9.50;99.90;;;;;;5009569;28;20457;-74
2022/11/29 07:00:05;;;;;;;43.07;40.50;;;9.50;99.90;;;;;;5010499;28;20457;-73
2022/11/29 07:02:52;;;;;;;43.37;40.87;;;9.50;99.90;;;;;;5013603;28;20532;-74
2022/11/29 07:05:24;;;;;;;45.07;42.43;;;9.50;99.90;;;;;;5013572;28;20445;-73
2022/11/29 07:07:54;;;;;;;42.50;40.00;;;9.50;99.90;;;;;;5013441;28;20990;-72
2022/11/29 07:10:23;;;;;;;42.87;40.37;;;9.50;99.90;;;;;;5013381;28;20477;-73
2022/11/29 07:12:51;;;;;;;43.53;40.43;;;9.50;99.90;;;;;;5013003;28;20492;-72
2022/11/29 07:15:20;;;;;;;42.33;39.57;;;9.50;99.90;;;;;;5013126;28;20492;-70
2022/11/29 07:18:02;;;;;;;43.80;41.10;;;9.40;99.90;;;;;;5013236;28;20450;-70
2022/11/29 07:20:37;;;;;;;42.57;39.70;;;9.40;99.90;;;;;;5011086;28;20449;-69
2022/11/29 07:23:13;;;;;;;39.93;37.33;;;9.30;99.90;;;;;;5002898;28;20480;-71
2022/11/29 07:25:48;;;;;;;43.27;40.27;;;9.40;99.90;;;;;;4993268;28;20453;-70
2022/11/29 07:28:30;;;;;;;40.37;37.73;;;9.40;99.90;;;;;;4992796;28;20489;-69
2022/11/29 07:31:05;;;;;;;41.00;37.83;;;9.60;99.90;;;;;;4992994;28;20457;-69
2022/11/29 07:33:39;;;;;;;40.20;37.30;;;9.60;99.90;;;;;;4993050;28;20452;-70
2022/11/29 07:36:15;;;;;;;43.53;40.53;;;9.70;99.90;;;;;;4993306;28;20454;-70
2022/11/29 07:38:54;;;;;;;40.67;37.80;;;9.60;99.90;;;;;;4993274;28;20470;-70
2022/11/29 07:41:27;;;;;;;40.43;37.67;;;9.50;99.90;;;;;;4992402;28;20446;-70
2022/11/29 07:44:05;;;;;;;39.57;36.57;;;9.50;99.90;;;;;;4988944;28;20457;-70
2022/11/29 07:46:32;;;;;;;40.30;37.60;;;9.60;99.90;;;;;;4992619;28;20466;-71
2022/11/29 07:48:59;;;;;;;42.77;39.67;;;9.60;99.90;;;;;;4993107;28;20478;-70
2022/11/29 07:51:25;;;;;;;40.70;37.90;;;9.50;99.90;;;;;;4993230;28;20897;-70
2022/11/29 07:53:52;;;;;;;42.43;39.37;;;9.40;99.90;;;;;;4993463;28;20451;-70
2022/11/29 07:56:19;;;;;;;42.67;39.57;;;9.40;99.90;;;;;;4992943;28;20450;-72
2022/11/29 07:58:46;;;;;;;43.50;40.30;;;9.30;99.90;;;;;;4992468;28;20538;-73
2022/11/29 08:01:14;;;;;;;40.70;37.90;;;9.40;99.90;;;;;;4992747;28;20446;-71
2022/11/29 08:03:41;;;;;;;41.37;38.63;;;9.30;99.90;;;;;;4990059;28;20451;-70
2022/11/29 08:06:08;;;;;;;41.23;38.30;;;9.40;99.90;;;;;;4992531;28;20458;-71
2022/11/29 08:08:35;;;;;;;41.13;38.43;;;9.30;99.90;;;;;;4992414;28;20940;-71
2022/11/29 08:11:02;;;;;;;40.30;37.50;;;9.30;99.90;;;;;;4991847;28;20454;-71
2022/11/29 08:13:28;;;;;;;40.27;37.33;;;9.20;99.90;;;;;;4991621;28;20678;-70
2022/11/29 08:15:55;;;;;;;41.97;39.03;;;9.20;99.90;;;;;;4992030;28;20501;-71
2022/11/29 08:18:23;;;;;;;42.50;39.50;;;9.30;99.90;;;;;;4992470;28;20920;-71
2022/11/29 08:20:50;;;;;;;42.70;39.80;;;9.30;99.90;;;;;;4992427;28;20900;-71
2022/11/29 14:52:22;;;;;;;41.17;38.87;;;9.00;99.90;;;;;;4988715;23;20746;-73
2022/11/29 14:54:55;;;;;;;41.90;39.30;;;8.90;99.90;;;;;;4988522;28;20454;-73
2022/11/29 14:58:02;;;;;;;43.20;40.60;;;8.90;99.90;;;;;;4989307;28;20947;-72
2022/11/29 15:00:34;;;;;;;43.67;41.07;;;8.90;99.90;;;;;;4983915;28;20858;-72
2022/11/29 15:03:09;;;;;;;42.77;40.20;;;9.00;99.90;;;;;;4989442;28;20454;-72
2022/11/29 15:05:39;;;;;;;43.80;40.90;;;9.00;99.90;;;;;;4990053;28;20450;-74
2022/11/29 15:08:14;;;;;;;42.07;39.70;;;9.10;99.90;;;;;;4989717;28;20457;-75
2022/11/29 15:10:46;;;;;;;43.43;40.77;;;9.10;99.90;;;;;;4989939;28;20514;-72
2022/11/29 15:13:25;;;;;;;44.37;41.73;;;9.00;99.90;;;;;;4989594;28;20854;-72
2022/11/29 15:16:14;;;;;;;43.57;41.07;;;9.00;99.90;;;;;;4990121;28;20542;-74
2022/11/29 15:19:16;;;;;;;42.67;40.17;;;9.00;99.90;;;;;;4989880;28;20442;-72
2022/11/29 15:21:50;;;;;;;42.73;40.17;;;9.00;99.90;;;;;;4992011;28;20454;-72
2022/11/29 15:24:18;;;;;;;41.83;39.33;;;9.00;99.90;;;;;;4993555;28;20450;-72
2022/11/29 15:26:56;;;;;;;41.90;39.50;;;8.90;99.90;;;;;;4993718;28;20449;-71
2022/11/29 15:29:23;;;;;;;41.20;38.50;;;8.80;99.90;;;;;;4993707;28;20490;-72
2022/11/29 15:31:53;;;;;;;42.80;40.10;;;8.90;99.90;;;;;;4993516;28;20446;-72
2022/11/29 15:34:22;;;;;;;41.00;38.50;;;8.90;99.90;;;;;;4993282;28;20454;-70
2022/11/29 15:36:49;;;;;;;43.03;40.37;;;8.80;99.90;;;;;;4993405;28;20446;-73
2022/11/29 15:39:28;;;;;;;41.10;38.70;;;8.80;99.90;;;;;;4993346;28;20454;-73
2022/11/29 15:42:00;;;;;;;40.90;38.40;;;8.90;99.90;;;;;;4993667;28;20446;-72
2022/11/29 15:44:27;;;;;;;42.13;39.67;;;8.70;99.90;;;;;;4993573;28;20451;-73
2022/11/29 15:46:53;;;;;;;42.60;39.90;;;8.70;99.90;;;;;;4993405;28;20454;-72
2022/11/29 15:49:24;;;;;;;41.47;38.87;;;8.80;99.90;;;;;;4992969;28;20494;-73
2022/11/29 15:51:56;;;;;;;42.63;39.93;;;8.70;99.90;;;;;;4993117;28;20478;-73
2022/11/29 15:54:29;;;;;;;41.70;39.30;;;8.80;99.90;;;;;;4993017;28;20450;-72
2022/11/29 15:56:59;;;;;;;42.00;39.30;;;8.80;99.90;;;;;;4992989;28;20455;-72
2022/11/29 15:59:31;;;;;;;43.00;40.30;;;8.70;99.90;;;;;;4992576;28;20439;-72
2022/11/29 16:02:02;;;;;;;41.90;39.30;;;8.70;99.90;;;;;;4992712;28;20454;-72
2022/11/29 16:04:30;;;;;;;40.93;38.43;;;8.70;99.90;;;;;;4992495;28;20468;-72
2022/11/29 16:06:58;;;;;;;42.03;39.63;;;8.70;99.90;;;;;;4992274;28;20450;-72
2022/11/29 16:09:32;;;;;;;39.00;36.50;;;8.80;99.90;;;;;;4992638;28;20835;-72
2022/11/29 16:12:00;;;;;;;42.87;40.27;;;8.70;99.90;;;;;;4992227;28;20454;-72
2022/11/29 16:14:28;;;;;;;41.20;38.57;;;8.80;99.90;;;;;;4991984;28;20446;-72
2022/11/29 16:16:57;;;;;;;42.53;39.93;;;8.80;99.90;;;;;;4992175;28;20486;-72
2022/11/29 16:19:31;;;;;;;40.60;38.13;;;8.80;99.90;;;;;;4992392;28;20446;-72
2022/11/29 16:22:03;;;;;;;44.00;40.87;;;8.90;99.90;;;;;;4992062;28;20964;-72
2022/11/29 16:24:34;;;;;;;43.53;40.70;;;8.80;99.90;;;;;;4991957;28;20784;-72
2022/11/29 16:27:01;;;;;;;41.77;39.20;;;8.90;99.90;;;;;;4991856;28;20447;-73
2022/11/29 16:29:30;;;;;;;42.90;40.30;;;8.80;99.90;;;;;;4991815;28;20561;-71
2022/11/29 16:31:57;;;;;;;41.73;39.03;;;8.90;99.90;;;;;;4991704;28;20451;-71
2022/11/29 16:34:26;;;;;;;41.03;38.43;;;8.80;99.90;;;;;;4991208;28;20549;-71
2022/11/29 16:37:01;;;;;;;41.93;39.27;;;8.70;99.90;;;;;;4991914;28;20453;-71
2022/11/29 16:39:29;;;;;;;40.80;38.27;;;8.80;99.90;;;;;;4991675;28;20453;-71
2022/11/29 16:42:13;;;;;;;41.70;39.20;;;8.70;99.90;;;;;;4991700;28;20447;-71
2022/11/29 16:45:01;;;;;;;42.20;39.50;;;8.70;99.90;;;;;;4991684;28;20447;-70
2022/11/29 16:47:30;;;;;;;40.10;37.70;;;8.60;99.90;;;;;;4981738;28;20457;-71
2022/11/29 16:50:13;;;;;;;41.70;39.00;;;8.60;99.90;;;;;;4991186;28;20491;-72
2022/11/29 16:52:40;;;;;;;41.17;38.23;;;8.60;99.90;;;;;;4991674;28;20932;-72
2022/11/29 16:55:08;;;;;;;41.97;38.97;;;8.60;99.90;;;;;;4991328;28;20481;-71
2022/11/29 16:57:36;;;;;;;43.37;39.93;;;8.60;99.90;;;;;;4991276;28;20461;-72
2022/11/29 17:00:11;;;;;;;42.63;39.80;;;8.60;99.90;;;;;;4991142;28;20447;-72
2022/11/29 17:02:38;;;;;;;41.30;38.50;;;8.60;99.90;;;;;;4991743;28;20458;-71
2022/11/29 17:05:05;;;;;;;42.17;39.20;;;8.60;99.90;;;;;;4991258;28;20458;-72
2022/11/29 17:07:37;;;;;;;41.77;39.07;;;8.60;99.90;;;;;;4991046;28;20477;-72
2022/11/29 17:10:06;;;;;;;43.10;40.30;;;8.60;99.90;;;;;;4990882;28;20860;-72
2022/11/29 17:12:33;;;;;;;42.63;39.73;;;8.60;99.90;;;;;;4989045;28;20465;-72
2022/11/29 17:15:01;;;;;;;43.83;40.77;;;8.70;99.90;;;;;;4990666;28;20655;-72
2022/11/29 17:17:28;;;;;;;42.23;39.33;;;8.70;99.90;;;;;;4990666;28;20459;-72
2022/11/29 17:19:55;;;;;;;43.10;40.27;;;8.70;99.90;;;;;;4990801;28;20781;-71
2022/11/29 17:22:21;;;;;;;45.30;42.40;;;8.70;99.90;;;;;;4990142;28;20493;-72
2022/11/29 17:24:48;;;;;;;45.70;42.50;;;8.70;99.90;;;;;;4990445;28;20979;-71
2022/11/29 17:27:15;;;;;;;45.27;41.97;;;8.70;99.90;;;;;;4990771;28;20678;-70
2022/11/29 17:29:42;;;;;;;45.00;41.70;;;8.70;99.90;;;;;;4990989;28;20482;-73
2022/11/29 17:32:10;;;;;;;43.83;41.07;;;8.60;99.90;;;;;;4990349;28;20458;-73
2022/11/29 17:34:36;;;;;;;42.90;40.13;;;8.60;99.90;;;;;;4990737;28;20594;-72
2022/11/29 17:37:03;;;;;;;44.17;41.13;;;8.60;99.90;;;;;;4990466;28;20457;-71
2022/11/29 17:39:30;;;;;;;45.60;42.30;;;8.60;99.90;;;;;;4990519;28;20578;-71
2022/11/29 17:41:57;;;;;;;43.60;40.40;;;8.50;99.90;;;;;;4990343;28;20541;-71
2022/11/29 17:44:24;;;;;;;43.77;40.90;;;8.60;99.90;;;;;;4989470;28;20446;-71
2022/11/29 17:46:51;;;;;;;45.20;41.93;;;8.60;99.90;;;;;;4990269;28;20963;-71
2022/11/29 17:49:19;;;;;;;46.47;43.30;;;8.70;99.90;;;;;;4989923;28;20486;-72
2022/11/29 17:51:46;;;;;;;44.93;41.77;;;8.50;99.90;;;;;;4990319;28;21190;-71
2022/11/29 17:54:13;;;;;;;45.53;42.03;;;8.50;99.90;;;;;;4988965;28;20481;-72
2022/11/29 17:56:39;;;;;;;45.70;42.57;;;8.40;99.90;;;;;;4989592;28;20453;-72
2022/11/29 17:59:06;;;;;;;44.97;41.73;;;8.40;99.90;;;;;;4990406;28;20473;-72
2022/11/29 18:01:35;;;;;;;47.30;43.73;;;8.50;99.90;;;;;;4990310;28;20451;-70
2022/11/29 18:04:04;;;;;;;46.67;43.17;;;8.50;99.90;;;;;;4990038;28;20454;-70
2022/11/29 18:06:37;;;;;;;45.27;41.17;;;8.40;99.90;;;;;;4994316;28;20450;-70
2022/11/29 18:09:06;;;;;;;44.90;41.23;;;8.50;99.90;;;;;;5007627;28;20485;-70
2022/11/29 18:11:34;;;;;;;45.80;42.00;;;8.50;99.90;;;;;;5009868;28;20465;-71
2022/11/29 18:14:02;;;;;;;46.03;42.53;;;8.50;99.90;;;;;;5009757;28;20456;-72
2022/11/29 18:16:31;;;;;;;44.47;41.20;;;8.50;99.90;;;;;;5009949;28;21020;-70
2022/11/29 18:18:59;;;;;;;45.97;42.47;;;8.50;99.90;;;;;;5007807;28;20453;-73
2022/11/29 18:21:26;;;;;;;47.23;43.43;;;8.60;99.90;;;;;;5009573;28;20810;-73
2022/11/29 18:23:55;;;;;;;47.73;43.83;;;8.60;99.90;;;;;;5009310;28;20461;-71
2022/11/29 18:26:23;;;;;;;47.63;43.83;;;8.50;99.90;;;;;;5009359;28;20457;-71
2022/11/29 18:28:50;;;;;;;47.83;44.03;;;8.60;99.90;;;;;;5004435;28;20806;-71
2022/11/29 18:31:19;;;;;;;46.47;42.63;;;8.60;99.90;;;;;;4983637;28;20670;-72
2022/11/29 18:33:47;;;;;;;48.70;44.97;;;8.50;99.90;;;;;;4988644;28;20450;-72
2022/11/29 18:36:16;;;;;;;48.77;44.73;;;8.60;99.90;;;;;;4988746;28;20453;-72
2022/11/29 18:38:44;;;;;;;52.17;47.33;;;8.60;99.90;;;;;;4988832;28;20449;-70
2022/11/29 18:41:16;;;;;;;50.40;46.20;;;8.60;99.90;;;;;;4988852;28;20463;-71
2022/11/29 18:43:43;;;;;;;49.30;45.30;;;8.60;99.90;;;;;;4988421;28;20438;-72
2022/11/29 18:46:11;;;;;;;49.90;45.90;;;8.50;99.90;;;;;;4988994;28;20446;-71
2022/11/29 18:48:39;;;;;;;51.53;47.03;;;8.50;99.90;;;;;;4988855;28;20873;-71
2022/11/29 18:51:08;;;;;;;50.03;45.90;;;8.60;99.90;;;;;;4988634;28;20478;-71
2022/11/29 18:53:36;;;;;;;49.57;45.37;;;8.60;99.90;;;;;;4989045;28;20522;-71
2022/11/29 18:56:04;;;;;;;48.47;44.53;;;8.70;99.90;;;;;;4988246;28;20439;-70
2022/11/29 18:58:33;;;;;;;49.17;45.13;;;8.60;99.90;;;;;;4988469;28;20446;-71
2022/11/29 19:01:05;;;;;;;49.50;45.60;;;8.50;99.90;;;;;;4988356;28;20450;-71
2022/11/29 19:03:33;;;;;;;50.33;46.03;;;8.60;99.90;;;;;;4986637;28;20443;-71
2022/11/29 19:06:00;;;;;;;50.37;45.90;;;8.50;99.90;;;;;;4988438;28;20445;-71
2022/11/29 19:08:27;;;;;;;48.03;43.93;;;8.50;99.90;;;;;;4988566;28;20447;-70
2022/11/29 19:10:54;;;;;;;49.70;44.80;;;8.60;99.90;;;;;;4988548;28;20824;-71
2022/11/29 19:13:21;;;;;;;46.80;42.73;;;8.50;99.90;;;;;;4988302;28;20937;-70
2022/11/29 19:15:53;;;;;;;46.33;42.30;;;8.60;99.90;;;;;;4986296;28;20562;-70
2022/11/29 19:18:19;;;;;;;47.63;43.50;;;8.60;99.90;;;;;;4986426;28;20451;-71
2022/11/29 19:20:46;;;;;;;47.40;43.30;;;8.50;99.90;;;;;;4988909;28;20447;-71
2022/11/29 19:23:13;;;;;;;49.53;45.23;;;8.50;99.90;;;;;;4988708;28;20457;-71
2022/11/29 19:25:40;;;;;;;49.40;45.00;;;8.40;99.90;;;;;;4989042;28;20826;-70
2022/11/29 19:28:07;;;;;;;48.03;43.50;;;8.30;99.90;;;;;;4989426;28;20808;-70
2022/11/29 19:30:34;;;;;;;48.17;43.67;;;8.30;99.90;;;;;;4988548;28;20486;-71
2022/11/29 19:33:02;;;;;;;46.77;42.63;;;8.30;99.90;;;;;;4988850;28;20451;-70
2022/11/29 19:35:29;;;;;;;47.63;43.03;;;8.20;99.90;;;;;;4988324;28;20453;-70
2022/11/29 19:37:55;;;;;;;48.03;43.63;;;8.20;99.90;;;;;;4988980;28;20471;-70
2022/11/29 19:40:22;;;;;;;47.80;43.43;;;8.10;99.90;;;;;;4988678;28;20443;-71
2022/11/29 19:42:49;;;;;;;48.83;44.33;;;8.20;99.90;;;;;;4988812;28;20916;-70
2022/11/29 19:45:16;;;;;;;48.17;43.23;;;8.20;99.90;;;;;;4988614;28;20477;-71
2022/11/29 19:47:43;;;;;;;46.73;42.50;;;8.10;99.90;;;;;;4988807;28;20450;-70
2022/11/29 19:50:11;;;;;;;45.40;40.93;;;8.10;99.90;;;;;;4988374;28;20497;-70
2022/11/29 19:52:38;;;;;;;47.60;43.10;;;8.10;99.90;;;;;;4988135;28;20936;-70
2022/11/29 19:55:05;;;;;;;47.77;43.17;;;8.10;99.90;;;;;;4988618;28;20812;-71
2022/11/29 19:57:32;;;;;;;43.70;39.80;;;8.10;99.90;;;;;;4988112;28;20535;-70
2022/11/29 19:59:59;;;;;;;45.43;41.50;;;8.20;99.90;;;;;;4988416;28;20443;-70
2022/11/29 20:02:26;;;;;;;45.37;41.20;;;8.20;99.90;;;;;;4988373;28;20549;-70
2022/11/29 20:04:53;;;;;;;47.77;43.07;;;8.30;99.90;;;;;;4988225;28;20459;-70
2022/11/29 20:07:21;;;;;;;48.50;43.90;;;8.30;99.90;;;;;;4988402;28;20453;-70
2022/11/29 20:09:47;;;;;;;46.57;42.17;;;8.40;99.90;;;;;;4991488;28;20482;-70
2022/11/29 20:12:14;;;;;;;50.40;45.43;;;8.30;99.90;;;;;;4991401;28;20454;-70
2022/11/29 20:14:41;;;;;;;45.40;40.93;;;8.30;99.90;;;;;;4991937;28;20455;-71
2022/11/29 20:17:08;;;;;;;48.00;43.10;;;8.30;99.90;;;;;;4992183;28;20459;-71
2022/11/29 20:19:34;;;;;;;48.83;44.37;;;8.40;99.90;;;;;;4991280;28;20981;-71
2022/11/29 20:22:01;;;;;;;48.00;43.03;;;8.50;99.90;;;;;;4991410;28;20454;-71
2022/11/29 20:24:29;;;;;;;46.23;41.63;;;8.50;99.90;;;;;;4991392;28;20481;-70
2022/11/29 20:26:56;;;;;;;46.80;41.93;;;8.40;99.90;;;;;;4991728;28;20805;-71
2022/11/29 20:29:25;;;;;;;45.03;40.77;;;8.40;99.90;;;;;;4991648;28;20786;-71
2022/11/29 20:31:53;;;;;;;45.30;40.87;;;8.30;99.90;;;;;;4991927;28;20443;-72
2022/11/29 20:34:20;;;;;;;45.97;41.63;;;8.30;99.90;;;;;;4991451;28;20503;-69
2022/11/29 20:37:06;;;;;;;46.97;41.20;;;8.40;99.90;;;;;;4991581;28;20457;-70
2022/11/29 20:39:42;;;;;;;45.23;40.83;;;8.40;99.90;;;;;;4991480;28;20458;-71
2022/11/29 20:42:36;;;;;;;42.87;38.77;;;8.40;99.90;;;;;;4991208;28;20473;-71
2022/11/29 20:45:05;;;;;;;48.30;43.30;;;8.40;99.90;;;;;;4991276;28;20469;-72
2022/11/29 20:47:40;;;;;;;43.97;39.40;;;8.30;99.90;;;;;;4990123;28;21068;-71
2022/11/29 20:50:07;;;;;;;43.27;38.67;;;8.30;99.90;;;;;;4990514;28;20847;-70
2022/11/29 20:52:41;;;;;;;43.07;38.90;;;8.30;99.90;;;;;;4992093;28;20455;-70
2022/11/29 20:55:10;;;;;;;43.23;38.30;;;8.30;99.90;;;;;;4992096;28;20457;-70
2022/11/29 20:57:37;;;;;;;43.67;39.53;;;8.30;99.90;;;;;;4991812;28;20454;-69
2022/11/29 21:00:04;;;;;;;42.87;38.47;;;8.40;99.90;;;;;;4991731;28;20519;-70
2022/11/29 21:02:31;;;;;;;44.37;39.70;;;8.40;99.90;;;;;;4992015;28;20462;-70
2022/11/29 21:04:58;;;;;;;41.53;37.63;;;8.40;99.90;;;;;;4991527;28;20442;-70
2022/11/29 21:07:25;;;;;;;45.10;40.57;;;8.30;99.90;;;;;;4991675;28;20446;-69
2022/11/29 21:09:51;;;;;;;43.83;39.20;;;8.30;99.90;;;;;;4991509;28;20470;-71
2022/11/29 21:12:20;;;;;;;46.07;41.27;;;8.30;99.90;;;;;;4988334;28;20448;-76
2022/11/29 21:14:47;;;;;;;44.63;39.83;;;8.30;99.90;;;;;;4991132;28;20451;-76
2022/11/29 21:17:15;;;;;;;45.60;38.07;;;8.20;99.90;;;;;;4991706;28;20470;-76
2022/11/29 21:19:42;;;;;;;43.70;39.30;;;8.30;99.90;;;;;;4991524;28;20451;-72
2022/11/29 21:22:18;;;;;;;45.63;40.83;;;8.30;99.90;;;;;;4989649;28;20465;-72
2022/11/29 21:24:53;;;;;;;43.53;38.90;;;8.20;99.90;;;;;;4990727;28;20852;-73
2022/11/29 21:27:28;;;;;;;45.77;41.20;;;8.20;99.90;;;;;;4987884;28;20442;-72
2022/11/29 21:29:56;;;;;;;42.60;38.20;;;8.30;99.90;;;;;;4990389;28;20932;-73
2022/11/29 21:32:25;;;;;;;42.27;37.67;;;8.30;99.90;;;;;;4990821;28;20922;-72
2022/11/29 21:34:52;;;;;;;43.37;38.70;;;8.30;99.90;;;;;;4990746;28;20827;-73
2022/11/29 21:37:21;;;;;;;42.30;38.00;;;8.30;99.90;;;;;;4989967;28;20842;-73
2022/11/29 21:39:50;;;;;;;41.90;37.83;;;8.30;99.90;;;;;;4990174;28;20450;-71
2022/11/29 21:42:17;;;;;;;45.30;39.97;;;8.20;99.90;;;;;;4990497;28;20557;-72
2022/11/29 21:44:45;;;;;;;42.90;36.93;;;8.20;99.90;;;;;;4990427;28;20435;-72
2022/11/29 21:47:13;;;;;;;43.47;38.10;;;8.20;99.90;;;;;;4990096;28;20447;-73
2022/11/29 21:49:40;;;;;;;44.37;39.73;;;8.10;99.90;;;;;;4987465;28;20467;-73
2022/11/29 21:52:07;;;;;;;41.30;37.10;;;8.10;99.90;;;;;;4990244;28;20489;-73
2022/11/29 21:54:33;;;;;;;42.80;38.30;;;8.20;99.90;;;;;;4989745;28;20451;-72
2022/11/29 21:57:00;;;;;;;44.73;40.50;;;8.10;99.90;;;;;;4987210;28;20443;-72
2022/11/29 21:59:27;;;;;;;43.37;38.77;;;8.10;99.90;;;;;;4989744;28;20443;-73
2022/11/29 22:01:55;;;;;;;44.33;39.77;;;8.10;99.90;;;;;;4990063;28;20505;-72
2022/11/29 22:04:23;;;;;;;45.07;40.03;;;8.10;99.90;;;;;;4990495;28;20817;-72
2022/11/29 22:06:50;;;;;;;41.23;36.83;;;8.00;99.90;;;;;;4990478;28;20470;-72
2022/11/29 22:09:17;;;;;;;48.87;40.70;;;8.20;99.90;;;;;;4990065;28;20485;-72
2022/11/29 22:11:44;;;;;;;42.40;37.47;;;8.20;99.90;;;;;;4990012;28;20487;-72
2022/11/29 22:14:14;;;;;;;49.20;40.33;;;8.30;99.90;;;;;;4989919;28;20462;-72
2022/11/29 22:16:45;;;;;;;47.47;40.87;;;8.30;99.90;;;;;;4990079;28;20506;-72
2022/11/29 22:19:15;;;;;;;45.30;40.20;;;8.20;99.90;;;;;;4990037;28;20811;-72
2022/11/29 22:21:43;;;;;;;47.17;39.83;;;8.10;99.90;;;;;;4989710;28;20442;-72
2022/11/29 22:24:11;;;;;;;47.27;39.70;;;8.20;99.90;;;;;;4990166;28;20450;-73
2022/11/29 22:26:38;;;;;;;46.63;41.67;;;8.20;99.90;;;;;;4990189;28;20881;-73
2022/11/29 22:29:05;;;;;;;42.97;38.37;;;8.10;99.90;;;;;;4990184;28;20453;-72
2022/11/29 22:31:34;;;;;;;45.23;40.53;;;8.00;99.90;;;;;;4989603;28;20486;-73
2022/11/29 22:34:01;;;;;;;44.40;37.63;;;8.00;99.90;;;;;;4989551;28;20673;-71
2022/11/29 22:36:29;;;;;;;47.60;39.47;;;8.10;99.90;;;;;;4989723;28;20447;-71
2022/11/29 22:38:55;;;;;;;48.83;40.60;;;8.20;99.90;;;;;;4989763;28;20477;-71
2022/11/29 22:41:22;;;;;;;51.27;43.00;;;8.10;99.90;;;;;;4989761;28;20924;-71
2022/11/29 22:43:49;;;;;;;50.23;42.77;;;8.20;99.90;;;;;;4989354;28;20454;-73
2022/11/29 22:46:17;;;;;;;50.03;42.27;;;8.30;99.90;;;;;;4989615;28;20454;-72
2022/11/29 22:48:46;;;;;;;50.87;42.63;;;8.30;99.90;;;;;;4989577;28;20447;-74
2022/11/29 22:51:14;;;;;;;46.60;41.07;;;8.20;99.90;;;;;;4989205;28;20501;-72
2022/11/29 22:53:49;;;;;;;47.40;42.20;;;8.20;99.90;;;;;;4989822;28;20462;-72
2022/11/29 22:56:16;;;;;;;43.10;38.57;;;8.20;99.90;;;;;;4989591;28;20477;-73
2022/11/29 22:58:43;;;;;;;44.50;39.70;;;8.30;99.90;;;;;;4989471;28;20497;-73
2022/11/29 23:01:12;;;;;;;47.10;42.00;;;8.30;99.90;;;;;;4989553;28;20454;-73
2022/11/29 23:03:40;;;;;;;45.47;40.40;;;8.20;99.90;;;;;;4989523;28;20505;-73
2022/11/29 23:06:09;;;;;;;49.87;44.67;;;8.30;99.90;;;;;;4989767;28;20451;-72
2022/11/29 23:08:36;;;;;;;52.87;45.47;;;8.30;99.90;;;;;;4989289;28;20455;-73
2022/11/29 23:11:06;;;;;;;47.23;42.10;;;8.20;99.90;;;;;;4989309;28;20486;-72
2022/11/29 23:13:34;;;;;;;52.90;45.07;;;8.10;99.90;;;;;;4989319;28;20455;-73
2022/11/29 23:16:01;;;;;;;51.23;44.40;;;8.10;99.90;;;;;;4989757;28;20454;-73
2022/11/29 23:18:29;;;;;;;50.27;44.90;;;8.10;99.90;;;;;;4989666;28;20451;-74
2022/11/29 23:21:00;;;;;;;49.03;43.87;;;8.10;99.90;;;;;;4989621;28;20457;-73